sensor_id;sensor_type;location;lat;lon;timestamp;pressure;altitude;pressure_sealevel;temperature;humidity
65534;BME280;53640;55.838;37.184;2023-03-31T00:00:20;98570.41;;;-0.29;54.08
65534;BME280;53640;55.838;37.184;2023-03-31T00:02:51;98408.84;;;-1.32;54.15
65534;BME280;53640;55.838;37.184;2023-03-31T00:05:19;98421.28;;;-1.24;53.79
65534;BME280;53640;55.838;37.184;2023-03-31T00:07:53;98427.44;;;-1.24;53.89
65534;BME280;53640;55.838;37.184;2023-03-31T00:10:20;98516.75;;;-0.74;53.86
65534;BME280;53640;55.838;37.184;2023-03-31T00:12:47;98394.88;;;-1.50;53.91
65534;BME280;53640;55.838;37.184;2023-03-31T00:15:14;98468.78;;;-1.05;54.04
65534;BME280;53640;55.838;37.184;2023-03-31T00:17:40;98443.03;;;-1.21;53.92
65534;BME280;53640;55.838;37.184;2023-03-31T00:20:08;98476.41;;;-1.10;53.90
65534;BME280;53640;55.838;37.184;2023-03-31T00:22:40;98442.03;;;-1.28;54.14
65534;BME280;53640;55.838;37.184;2023-03-31T00:25:15;98494.00;;;-1.01;54.30
65534;BME280;53640;55.838;37.184;2023-03-31T00:27:42;98432.59;;;-1.39;54.23
65534;BME280;53640;55.838;37.184;2023-03-31T00:30:12;98462.94;;;-1.25;54.54
65534;BME280;53640;55.838;37.184;2023-03-31T00:32:42;98442.69;;;-1.34;54.33
65534;BME280;53640;55.838;37.184;2023-03-31T00:35:09;98478.53;;;-1.22;54.60
65534;BME280;53640;55.838;37.184;2023-03-31T00:37:38;98506.09;;;-1.06;54.37
65534;BME280;53640;55.838;37.184;2023-03-31T00:40:05;98445.66;;;-1.45;54.56
65534;BME280;53640;55.838;37.184;2023-03-31T00:42:40;98501.44;;;-1.21;54.86
65534;BME280;53640;55.838;37.184;2023-03-31T00:47:47;98465.88;;;-1.52;55.03
65534;BME280;53640;55.838;37.184;2023-03-31T00:50:25;98407.41;;;-1.93;55.11
65534;BME280;53640;55.838;37.184;2023-03-31T00:53:00;98501.09;;;-1.34;55.30
65534;BME280;53640;55.838;37.184;2023-03-31T00:55:35;98457.22;;;-1.71;55.03
65534;BME280;53640;55.838;37.184;2023-03-31T00:58:04;98528.00;;;-1.21;55.53
65534;BME280;53640;55.838;37.184;2023-03-31T01:00:35;98481.13;;;-1.54;55.20
65534;BME280;53640;55.838;37.184;2023-03-31T01:03:07;98474.66;;;-1.60;55.31
65534;BME280;53640;55.838;37.184;2023-03-31T01:05:46;98475.50;;;-1.51;55.52
65534;BME280;53640;55.838;37.184;2023-03-31T01:08:20;98454.38;;;-1.77;55.59
65534;BME280;53640;55.838;37.184;2023-03-31T01:11:02;98458.53;;;-1.75;55.33
65534;BME280;53640;55.838;37.184;2023-03-31T01:14:25;98400.03;;;-2.16;55.47
65534;BME280;53640;55.838;37.184;2023-03-31T01:16:55;98380.84;;;-2.18;55.64
65534;BME280;53640;55.838;37.184;2023-03-31T01:25:58;98525.81;;;-1.42;56.05
65534;BME280;53640;55.838;37.184;2023-03-31T01:28:35;98439.06;;;-1.92;56.09
65534;BME280;53640;55.838;37.184;2023-03-31T01:46:36;98361.38;;;-2.69;56.62
65534;BME280;53640;55.838;37.184;2023-03-31T01:57:21;98340.50;;;-2.72;56.56
65534;BME280;53640;55.838;37.184;2023-03-31T02:00:11;98330.84;;;-2.89;56.56
65534;BME280;53640;55.838;37.184;2023-03-31T02:02:57;98437.44;;;-2.27;56.77
65534;BME280;53640;55.838;37.184;2023-03-31T02:05:32;98410.88;;;-2.43;56.52
65534;BME280;53640;55.838;37.184;2023-03-31T02:08:09;98386.09;;;-2.60;56.58
65534;BME280;53640;55.838;37.184;2023-03-31T02:10:40;98399.75;;;-2.47;56.87
65534;BME280;53640;55.838;37.184;2023-03-31T02:13:14;98396.94;;;-2.45;56.57
65534;BME280;53640;55.838;37.184;2023-03-31T02:15:50;98380.50;;;-2.57;56.20
65534;BME280;53640;55.838;37.184;2023-03-31T02:18:20;98373.53;;;-2.58;56.50
65534;BME280;53640;55.838;37.184;2023-03-31T02:20:59;98476.19;;;-1.92;56.28
65534;BME280;53640;55.838;37.184;2023-03-31T02:23:28;98458.78;;;-2.02;56.15
65534;BME280;53640;55.838;37.184;2023-03-31T02:26:10;98391.13;;;-2.49;56.49
65534;BME280;53640;55.838;37.184;2023-03-31T02:28:38;98384.16;;;-2.50;56.48
65534;BME280;53640;55.838;37.184;2023-03-31T02:31:22;98423.53;;;-2.29;56.49
65534;BME280;53640;55.838;37.184;2023-03-31T02:33:52;98352.09;;;-2.73;56.43
65534;BME280;53640;55.838;37.184;2023-03-31T02:36:24;98484.13;;;-2.00;56.44
65534;BME280;53640;55.838;37.184;2023-03-31T02:39:05;98351.06;;;-2.80;56.38
65534;BME280;53640;55.838;37.184;2023-03-31T02:41:32;98361.03;;;-2.74;56.29
65534;BME280;53640;55.838;37.184;2023-03-31T02:44:00;98399.06;;;-2.49;56.25
65534;BME280;53640;55.838;37.184;2023-03-31T02:46:27;98377.81;;;-2.65;56.31
65534;BME280;53640;55.838;37.184;2023-03-31T02:48:57;98417.81;;;-2.42;56.08
65534;BME280;53640;55.838;37.184;2023-03-31T02:55:04;98481.94;;;-2.04;56.12
65534;BME280;53640;55.838;37.184;2023-03-31T02:57:59;98390.88;;;-2.64;56.24
65534;BME280;53640;55.838;37.184;2023-03-31T03:00:51;98468.50;;;-2.11;56.15
65534;BME280;53640;55.838;37.184;2023-03-31T03:03:34;98470.47;;;-2.13;56.25
65534;BME280;53640;55.838;37.184;2023-03-31T03:06:23;98483.75;;;-2.13;56.44
65534;BME280;53640;55.838;37.184;2023-03-31T03:09:22;98481.22;;;-2.15;56.13
65534;BME280;53640;55.838;37.184;2023-03-31T03:12:07;98431.34;;;-2.53;56.17
65534;BME280;53640;55.838;37.184;2023-03-31T03:17:17;98406.59;;;-2.70;56.23
65534;BME280;53640;55.838;37.184;2023-03-31T03:19:53;98393.75;;;-2.83;56.04
65534;BME280;53640;55.838;37.184;2023-03-31T03:22:20;98486.88;;;-2.18;56.22
65534;BME280;53640;55.838;37.184;2023-03-31T03:24:46;98340.63;;;-3.16;56.16
65534;BME280;53640;55.838;37.184;2023-03-31T03:27:16;98330.34;;;-3.19;56.05
65534;BME280;53640;55.838;37.184;2023-03-31T03:29:42;98382.50;;;-2.85;56.16
65534;BME280;53640;55.838;37.184;2023-03-31T03:32:12;98331.00;;;-3.17;56.17
65534;BME280;53640;55.838;37.184;2023-03-31T03:34:40;98333.03;;;-3.11;56.17
65534;BME280;53640;55.838;37.184;2023-03-31T03:37:07;98388.66;;;-2.76;56.07
65534;BME280;53640;55.838;37.184;2023-03-31T03:39:34;98474.91;;;-2.22;56.03
65534;BME280;53640;55.838;37.184;2023-03-31T03:42:01;98417.56;;;-2.57;56.04
65534;BME280;53640;55.838;37.184;2023-03-31T03:44:27;98400.34;;;-2.61;56.02
65534;BME280;53640;55.838;37.184;2023-03-31T03:46:58;98401.13;;;-2.69;56.09
65534;BME280;53640;55.838;37.184;2023-03-31T03:49:25;98372.56;;;-2.83;56.03
65534;BME280;53640;55.838;37.184;2023-03-31T03:51:52;98373.91;;;-2.79;56.16
65534;BME280;53640;55.838;37.184;2023-03-31T03:54:21;98321.22;;;-3.16;55.79
65534;BME280;53640;55.838;37.184;2023-03-31T03:56:48;98303.47;;;-3.24;55.83
65534;BME280;53640;55.838;37.184;2023-03-31T03:59:15;98295.88;;;-3.27;56.12
65534;BME280;53640;55.838;37.184;2023-03-31T04:01:42;98393.06;;;-2.59;55.93
65534;BME280;53640;55.838;37.184;2023-03-31T04:04:09;98387.72;;;-2.67;56.29
65534;BME280;53640;55.838;37.184;2023-03-31T04:06:35;98421.59;;;-2.45;55.99
65534;BME280;53640;55.838;37.184;2023-03-31T04:09:02;98420.47;;;-2.42;55.96
65534;BME280;53640;55.838;37.184;2023-03-31T04:11:29;98446.72;;;-2.23;55.95
65534;BME280;53640;55.838;37.184;2023-03-31T04:13:55;98401.28;;;-2.44;56.14
65534;BME280;53640;55.838;37.184;2023-03-31T04:16:22;98430.63;;;-2.29;56.19
65534;BME280;53640;55.838;37.184;2023-03-31T04:18:51;98384.47;;;-2.53;56.14
65534;BME280;53640;55.838;37.184;2023-03-31T04:21:22;98390.66;;;-2.44;56.23
65534;BME280;53640;55.838;37.184;2023-03-31T04:23:50;98374.25;;;-2.48;56.26
65534;BME280;53640;55.838;37.184;2023-03-31T04:26:25;98417.78;;;-2.16;56.15
65534;BME280;53640;55.838;37.184;2023-03-31T04:28:56;98407.84;;;-2.14;56.26
65534;BME280;53640;55.838;37.184;2023-03-31T04:31:26;98362.00;;;-2.41;56.27
65534;BME280;53640;55.838;37.184;2023-03-31T04:33:56;98356.91;;;-2.34;56.16
65534;BME280;53640;55.838;37.184;2023-03-31T04:36:29;98276.59;;;-2.85;56.14
65534;BME280;53640;55.838;37.184;2023-03-31T04:38:56;98336.00;;;-2.45;56.04
65534;BME280;53640;55.838;37.184;2023-03-31T04:41:24;98249.69;;;-2.98;55.94
65534;BME280;53640;55.838;37.184;2023-03-31T04:43:52;98351.97;;;-2.29;55.91
65534;BME280;53640;55.838;37.184;2023-03-31T04:46:21;98320.91;;;-2.53;56.00
65534;BME280;53640;55.838;37.184;2023-03-31T04:48:52;98300.19;;;-2.58;55.56
65534;BME280;53640;55.838;37.184;2023-03-31T04:51:24;98345.34;;;-2.25;55.76
65534;BME280;53640;55.838;37.184;2023-03-31T04:54:09;98352.00;;;-2.21;55.57
65534;BME280;53640;55.838;37.184;2023-03-31T04:56:46;98251.78;;;-2.76;55.50
65534;BME280;53640;55.838;37.184;2023-03-31T04:59:13;98309.88;;;-2.32;55.30
65534;BME280;53640;55.838;37.184;2023-03-31T05:01:40;98214.69;;;-2.84;55.41
65534;BME280;53640;55.838;37.184;2023-03-31T05:04:10;98233.28;;;-2.60;55.33
65534;BME280;53640;55.838;37.184;2023-03-31T05:06:38;98237.28;;;-2.55;55.31
65534;BME280;53640;55.838;37.184;2023-03-31T05:09:05;98347.09;;;-1.83;55.21
65534;BME280;53640;55.838;37.184;2023-03-31T05:11:39;98311.75;;;-2.00;54.71
65534;BME280;53640;55.838;37.184;2023-03-31T05:14:07;98284.41;;;-2.09;54.69
65534;BME280;53640;55.838;37.184;2023-03-31T05:16:35;98270.16;;;-2.24;54.36
65534;BME280;53640;55.838;37.184;2023-03-31T05:19:05;98324.38;;;-1.86;54.59
65534;BME280;53640;55.838;37.184;2023-03-31T05:21:34;98235.00;;;-2.42;54.46
65534;BME280;53640;55.838;37.184;2023-03-31T05:24:01;98281.59;;;-2.07;54.41
65534;BME280;53640;55.838;37.184;2023-03-31T05:26:29;98289.41;;;-2.05;54.13
65534;BME280;53640;55.838;37.184;2023-03-31T05:28:56;98280.63;;;-2.06;54.01
65534;BME280;53640;55.838;37.184;2023-03-31T05:31:24;98315.59;;;-1.86;54.22
65534;BME280;53640;55.838;37.184;2023-03-31T05:34:48;98385.13;;;-1.33;54.29
65534;BME280;53640;55.838;37.184;2023-03-31T05:37:46;98309.34;;;-1.69;53.50
65534;BME280;53640;55.838;37.184;2023-03-31T05:40:13;98287.44;;;-1.87;53.39
65534;BME280;53640;55.838;37.184;2023-03-31T05:42:39;98266.53;;;-1.98;53.96
65534;BME280;53640;55.838;37.184;2023-03-31T05:45:11;98218.13;;;-2.17;53.34
65534;BME280;53640;55.838;37.184;2023-03-31T05:47:38;98397.56;;;-1.10;52.88
65534;BME280;53640;55.838;37.184;2023-03-31T05:50:07;98254.94;;;-1.89;52.73
65534;BME280;53640;55.838;37.184;2023-03-31T05:52:34;98276.16;;;-1.73;52.02
65534;BME280;53640;55.838;37.184;2023-03-31T05:55:03;98379.31;;;-1.04;51.52
65534;BME280;53640;55.838;37.184;2023-03-31T05:57:34;98318.59;;;-1.40;51.63
65534;BME280;53640;55.838;37.184;2023-03-31T06:00:03;98272.19;;;-1.61;51.65
65534;BME280;53640;55.838;37.184;2023-03-31T06:02:50;98259.41;;;-1.49;51.39
65534;BME280;53640;55.838;37.184;2023-03-31T06:05:25;98310.75;;;-1.01;50.67
65534;BME280;53640;55.838;37.184;2023-03-31T06:07:59;98318.16;;;-0.80;50.43
65534;BME280;53640;55.838;37.184;2023-03-31T06:10:37;98300.38;;;-0.71;50.80
65534;BME280;53640;55.838;37.184;2023-03-31T06:13:10;98304.75;;;-0.47;50.13
65534;BME280;53640;55.838;37.184;2023-03-31T06:15:56;98265.28;;;-0.58;49.72
65534;BME280;53640;55.838;37.184;2023-03-31T06:18:34;98380.59;;;0.34;49.88
65534;BME280;53640;55.838;37.184;2023-03-31T06:21:14;98336.38;;;0.33;49.88
65534;BME280;53640;55.838;37.184;2023-03-31T06:23:44;98379.91;;;0.63;48.21
65534;BME280;53640;55.838;37.184;2023-03-31T06:26:13;98328.31;;;0.41;47.75
65534;BME280;53640;55.838;37.184;2023-03-31T06:28:41;98326.91;;;0.53;47.69
65534;BME280;53640;55.838;37.184;2023-03-31T06:31:10;98373.09;;;0.83;47.87
65534;BME280;53640;55.838;37.184;2023-03-31T06:33:38;98369.38;;;0.93;47.37
65534;BME280;53640;55.838;37.184;2023-03-31T06:36:08;98353.88;;;0.96;47.22
65534;BME280;53640;55.838;37.184;2023-03-31T06:38:36;98360.31;;;1.17;46.65
65534;BME280;53640;55.838;37.184;2023-03-31T06:41:06;98329.91;;;1.11;46.68
65534;BME280;53640;55.838;37.184;2023-03-31T06:43:33;98344.91;;;1.42;46.30
65534;BME280;53640;55.838;37.184;2023-03-31T06:46:00;98349.78;;;1.53;45.74
65534;BME280;53640;55.838;37.184;2023-03-31T06:48:26;98335.59;;;1.67;45.78
65534;BME280;53640;55.838;37.184;2023-03-31T06:50:53;98322.81;;;1.77;45.21
65534;BME280;53640;55.838;37.184;2023-03-31T06:53:20;98339.13;;;2.04;44.66
65534;BME280;53640;55.838;37.184;2023-03-31T06:55:48;98351.66;;;2.25;44.56
65534;BME280;53640;55.838;37.184;2023-03-31T06:58:14;98353.47;;;2.39;44.12
65534;BME280;53640;55.838;37.184;2023-03-31T07:00:42;98344.38;;;2.55;43.48
65534;BME280;53640;55.838;37.184;2023-03-31T07:03:12;98334.41;;;2.42;42.73
65534;BME280;53640;55.838;37.184;2023-03-31T07:05:40;98340.06;;;2.54;42.77
65534;BME280;53640;55.838;37.184;2023-03-31T07:08:06;98338.84;;;2.57;42.97
65534;BME280;53640;55.838;37.184;2023-03-31T07:10:33;98324.72;;;2.63;42.88
65534;BME280;53640;55.838;37.184;2023-03-31T07:13:00;98312.94;;;2.78;42.95
65534;BME280;53640;55.838;37.184;2023-03-31T07:15:26;98330.19;;;3.04;42.67
65534;BME280;53640;55.838;37.184;2023-03-31T07:17:55;98341.47;;;3.27;42.54
65534;BME280;53640;55.838;37.184;2023-03-31T07:20:27;98342.09;;;3.30;42.05
65534;BME280;53640;55.838;37.184;2023-03-31T07:22:54;98298.97;;;3.11;42.27
65534;BME280;53640;55.838;37.184;2023-03-31T07:25:20;98326.47;;;3.33;41.93
65534;BME280;53640;55.838;37.184;2023-03-31T07:28:27;98321.94;;;3.34;41.80
65534;BME280;53640;55.838;37.184;2023-03-31T07:30:54;98321.34;;;3.32;42.08
65534;BME280;53640;55.838;37.184;2023-03-31T07:33:20;98313.75;;;3.35;42.07
65534;BME280;53640;55.838;37.184;2023-03-31T07:35:46;98338.16;;;3.60;42.18
65534;BME280;53640;55.838;37.184;2023-03-31T07:38:13;98311.81;;;3.57;41.50
65534;BME280;53640;55.838;37.184;2023-03-31T07:40:43;98314.78;;;3.69;41.42
65534;BME280;53640;55.838;37.184;2023-03-31T07:43:10;98314.38;;;3.79;41.30
65534;BME280;53640;55.838;37.184;2023-03-31T07:45:41;98283.28;;;3.78;40.91
65534;BME280;53640;55.838;37.184;2023-03-31T07:48:09;98314.88;;;4.02;40.94
65534;BME280;53640;55.838;37.184;2023-03-31T07:50:35;98255.03;;;3.62;40.81
65534;BME280;53640;55.838;37.184;2023-03-31T07:53:09;98302.31;;;3.96;40.80
65534;BME280;53640;55.838;37.184;2023-03-31T07:55:36;98302.13;;;4.04;41.26
65534;BME280;53640;55.838;37.184;2023-03-31T07:58:02;98292.25;;;4.11;41.13
65534;BME280;53640;55.838;37.184;2023-03-31T08:00:40;98192.66;;;3.68;40.75
65534;BME280;53640;55.838;37.184;2023-03-31T08:03:07;98299.94;;;4.41;40.54
65534;BME280;53640;55.838;37.184;2023-03-31T08:05:33;98261.34;;;4.15;40.07
65534;BME280;53640;55.838;37.184;2023-03-31T08:08:00;98270.84;;;4.11;39.98
65534;BME280;53640;55.838;37.184;2023-03-31T08:10:27;98296.19;;;4.29;40.59
65534;BME280;53640;55.838;37.184;2023-03-31T08:13:10;98293.34;;;4.37;40.75
65534;BME280;53640;55.838;37.184;2023-03-31T08:15:41;98208.41;;;4.04;40.42
65534;BME280;53640;55.838;37.184;2023-03-31T08:18:07;98270.06;;;4.64;40.11
65534;BME280;53640;55.838;37.184;2023-03-31T08:20:33;98283.03;;;4.87;39.90
65534;BME280;53640;55.838;37.184;2023-03-31T08:23:00;98285.91;;;4.98;39.98
65534;BME280;53640;55.838;37.184;2023-03-31T08:29:55;98291.28;;;5.05;39.61
65534;BME280;53640;55.838;37.184;2023-03-31T08:32:22;98281.59;;;5.04;39.85
65534;BME280;53640;55.838;37.184;2023-03-31T08:34:49;98280.13;;;5.02;39.86
65534;BME280;53640;55.838;37.184;2023-03-31T08:37:16;98277.03;;;4.98;39.91
65534;BME280;53640;55.838;37.184;2023-03-31T08:39:43;98265.50;;;4.91;40.21
65534;BME280;53640;55.838;37.184;2023-03-31T08:42:42;98239.13;;;4.61;40.03
65534;BME280;53640;55.838;37.184;2023-03-31T08:45:31;98253.16;;;4.57;40.02
65534;BME280;53640;55.838;37.184;2023-03-31T08:48:05;98260.16;;;4.58;40.45
65534;BME280;53640;55.838;37.184;2023-03-31T08:50:39;98205.13;;;4.15;40.51
65534;BME280;53640;55.838;37.184;2023-03-31T09:11:13;98211.72;;;4.19;41.48
65534;BME280;53640;55.838;37.184;2023-03-31T09:14:01;98209.25;;;4.31;41.62
65534;BME280;53640;55.838;37.184;2023-03-31T09:17:04;98224.72;;;4.49;41.81
65534;BME280;53640;55.838;37.184;2023-03-31T09:22:45;98215.59;;;4.77;41.14
65534;BME280;53640;55.838;37.184;2023-03-31T09:27:45;98213.56;;;4.79;41.54
65534;BME280;53640;55.838;37.184;2023-03-31T09:30:25;98112.22;;;4.22;41.27
65534;BME280;53640;55.838;37.184;2023-03-31T09:33:28;98219.69;;;4.92;41.02
65534;BME280;53640;55.838;37.184;2023-03-31T09:36:50;98214.13;;;4.94;41.39
65534;BME280;53640;55.838;37.184;2023-03-31T09:39:44;98194.97;;;4.97;41.22
65534;BME280;53640;55.838;37.184;2023-03-31T09:42:28;98135.44;;;4.55;41.17
65534;BME280;53640;55.838;37.184;2023-03-31T09:45:13;98105.59;;;4.38;41.26
65534;BME280;53640;55.838;37.184;2023-03-31T09:47:56;98190.00;;;4.94;41.28
65534;BME280;53640;55.838;37.184;2023-03-31T09:50:25;98177.84;;;4.91;41.42
65534;BME280;53640;55.838;37.184;2023-03-31T09:52:55;98188.78;;;4.90;41.04
65534;BME280;53640;55.838;37.184;2023-03-31T09:55:28;98177.84;;;4.85;41.52
65534;BME280;53640;55.838;37.184;2023-03-31T09:57:59;98138.31;;;4.54;41.37
65534;BME280;53640;55.838;37.184;2023-03-31T10:00:29;98174.34;;;4.78;41.66
65534;BME280;53640;55.838;37.184;2023-03-31T10:03:01;98122.66;;;4.51;41.54
65534;BME280;53640;55.838;37.184;2023-03-31T10:05:58;98163.66;;;4.71;41.50
65534;BME280;53640;55.838;37.184;2023-03-31T10:08:49;98156.44;;;4.71;42.02
65534;BME280;53640;55.838;37.184;2023-03-31T10:11:17;98112.16;;;4.49;41.77
65534;BME280;53640;55.838;37.184;2023-03-31T10:13:58;98142.81;;;4.73;41.92
65534;BME280;53640;55.838;37.184;2023-03-31T10:19:11;98097.72;;;4.50;42.09
65534;BME280;53640;55.838;37.184;2023-03-31T10:21:39;98142.19;;;4.78;42.28
65534;BME280;53640;55.838;37.184;2023-03-31T10:24:20;98104.53;;;4.59;42.45
65534;BME280;53640;55.838;37.184;2023-03-31T10:27:27;98138.44;;;4.85;42.10
65534;BME280;53640;55.838;37.184;2023-03-31T10:29:58;98142.16;;;4.84;42.00
65534;BME280;53640;55.838;37.184;2023-03-31T10:32:30;98132.72;;;4.82;42.02
65534;BME280;53640;55.838;37.184;2023-03-31T10:35:04;98129.41;;;4.80;41.80
65534;BME280;53640;55.838;37.184;2023-03-31T10:37:34;98130.22;;;4.87;42.16
65534;BME280;53640;55.838;37.184;2023-03-31T10:40:20;98122.81;;;4.82;42.09
65534;BME280;53640;55.838;37.184;2023-03-31T10:45:30;98080.41;;;4.59;42.10
65534;BME280;53640;55.838;37.184;2023-03-31T10:47:58;98074.19;;;4.59;42.23
65534;BME280;53640;55.838;37.184;2023-03-31T10:50:34;98092.31;;;4.70;42.10
65534;BME280;53640;55.838;37.184;2023-03-31T10:53:11;98110.00;;;4.78;42.48
65534;BME280;53640;55.838;37.184;2023-03-31T10:55:53;98072.38;;;4.59;42.22
65534;BME280;53640;55.838;37.184;2023-03-31T11:37:47;98071.50;;;4.72;42.93
65534;BME280;53640;55.838;37.184;2023-03-31T11:43:32;97988.78;;;4.24;43.21
65534;BME280;53640;55.838;37.184;2023-03-31T11:49:32;97917.22;;;3.86;42.80
65534;BME280;53640;55.838;37.184;2023-03-31T11:52:13;97998.81;;;4.42;43.24
65534;BME280;53640;55.838;37.184;2023-03-31T11:55:06;97960.59;;;4.21;43.67
65534;BME280;53640;55.838;37.184;2023-03-31T12:00:40;97980.50;;;4.39;43.49
65534;BME280;53640;55.838;37.184;2023-03-31T12:03:17;97957.25;;;4.33;43.43
65534;BME280;53640;55.838;37.184;2023-03-31T12:05:50;97967.66;;;4.47;43.38
65534;BME280;53640;55.838;37.184;2023-03-31T12:08:36;98027.22;;;5.01;43.43
65534;BME280;53640;55.838;37.184;2023-03-31T12:11:51;98016.66;;;5.06;43.16
65534;BME280;53640;55.838;37.184;2023-03-31T12:19:48;98013.69;;;5.21;43.09
65534;BME280;53640;55.838;37.184;2023-03-31T12:22:25;98005.03;;;5.26;43.25
65534;BME280;53640;55.838;37.184;2023-03-31T12:24:53;97972.91;;;5.12;42.65
65534;BME280;53640;55.838;37.184;2023-03-31T12:27:50;97987.25;;;5.25;42.60
65534;BME280;53640;55.838;37.184;2023-03-31T12:33:05;97975.31;;;5.20;42.67
65534;BME280;53640;55.838;37.184;2023-03-31T12:45:31;97997.75;;;5.33;42.65
65534;BME280;53640;55.838;37.184;2023-03-31T12:48:44;97986.63;;;5.29;42.77
65534;BME280;53640;55.838;37.184;2023-03-31T12:57:38;97910.03;;;4.70;42.70
65534;BME280;53640;55.838;37.184;2023-03-31T13:00:23;97895.88;;;4.63;42.96
65534;BME280;53640;55.838;37.184;2023-03-31T13:05:56;97882.16;;;4.46;42.73
65534;BME280;53640;55.838;37.184;2023-03-31T13:09:04;97976.00;;;5.09;43.24
65534;BME280;53640;55.838;37.184;2023-03-31T13:14:23;97967.19;;;5.02;43.34
65534;BME280;53640;55.838;37.184;2023-03-31T13:17:31;97959.13;;;5.02;43.38
65534;BME280;53640;55.838;37.184;2023-03-31T13:22:49;97956.72;;;4.94;43.05
65534;BME280;53640;55.838;37.184;2023-03-31T13:30:45;97906.97;;;4.66;43.21
65534;BME280;53640;55.838;37.184;2023-03-31T13:38:43;97856.47;;;4.32;43.27
65534;BME280;53640;55.838;37.184;2023-03-31T13:52:12;97856.06;;;4.28;43.55
65534;BME280;53640;55.838;37.184;2023-03-31T14:05:52;97918.38;;;4.55;43.75
65534;BME280;53640;55.838;37.184;2023-03-31T14:08:32;97873.19;;;4.27;43.66
65534;BME280;53640;55.838;37.184;2023-03-31T14:14:13;97923.94;;;4.60;44.12
65534;BME280;53640;55.838;37.184;2023-03-31T14:16:47;97829.25;;;4.03;44.30
65534;BME280;53640;55.838;37.184;2023-03-31T14:30:52;97924.81;;;4.47;44.08
65534;BME280;53640;55.838;37.184;2023-03-31T14:36:25;97913.25;;;4.47;44.33
65534;BME280;53640;55.838;37.184;2023-03-31T14:39:00;97876.53;;;4.16;44.24
65534;BME280;53640;55.838;37.184;2023-03-31T14:41:28;97851.88;;;4.07;44.47
65534;BME280;53640;55.838;37.184;2023-03-31T14:44:01;97803.81;;;3.74;44.85
65534;BME280;53640;55.838;37.184;2023-03-31T14:46:35;97835.66;;;3.95;44.39
65534;BME280;53640;55.838;37.184;2023-03-31T14:52:00;97791.53;;;3.53;44.90
65534;BME280;53640;55.838;37.184;2023-03-31T14:54:34;97815.19;;;3.63;45.15
65534;BME280;53640;55.838;37.184;2023-03-31T14:57:43;97802.88;;;3.55;45.28
65534;BME280;53640;55.838;37.184;2023-03-31T15:00:31;97868.44;;;3.84;45.90
65534;BME280;53640;55.838;37.184;2023-03-31T15:03:02;97791.16;;;3.36;46.00
65534;BME280;53640;55.838;37.184;2023-03-31T15:05:49;97916.75;;;4.03;46.33
65534;BME280;53640;55.838;37.184;2023-03-31T15:08:26;97773.13;;;3.12;46.72
65534;BME280;53640;55.838;37.184;2023-03-31T15:10:55;97845.03;;;3.53;46.36
65534;BME280;53640;55.838;37.184;2023-03-31T15:13:32;97820.81;;;3.41;46.57
65534;BME280;53640;55.838;37.184;2023-03-31T15:15:59;97822.03;;;3.32;46.77
65534;BME280;53640;55.838;37.184;2023-03-31T15:18:26;97773.34;;;2.97;47.07
65534;BME280;53640;55.838;37.184;2023-03-31T15:20:54;97792.06;;;2.97;46.80
65534;BME280;53640;55.838;37.184;2023-03-31T15:23:23;97834.38;;;3.26;47.07
65534;BME280;53640;55.838;37.184;2023-03-31T15:25:57;97785.06;;;2.96;47.00
65534;BME280;53640;55.838;37.184;2023-03-31T15:28:27;97831.47;;;3.35;47.26
65534;BME280;53640;55.838;37.184;2023-03-31T15:31:19;97848.56;;;3.34;47.05
65534;BME280;53640;55.838;37.184;2023-03-31T15:33:52;97845.88;;;3.34;47.15
65534;BME280;53640;55.838;37.184;2023-03-31T15:36:19;97820.00;;;3.27;47.23
65534;BME280;53640;55.838;37.184;2023-03-31T15:38:58;97780.75;;;3.01;47.33
65534;BME280;53640;55.838;37.184;2023-03-31T15:41:31;97766.38;;;2.96;47.72
65534;BME280;53640;55.838;37.184;2023-03-31T15:47:28;97859.69;;;3.50;47.67
65534;BME280;53640;55.838;37.184;2023-03-31T15:50:10;97858.66;;;3.45;47.87
65534;BME280;53640;55.838;37.184;2023-03-31T15:52:38;97906.53;;;3.80;48.38
65534;BME280;53640;55.838;37.184;2023-03-31T15:57:50;97792.06;;;2.97;48.63
65534;BME280;53640;55.838;37.184;2023-03-31T16:03:27;97870.19;;;3.39;48.96
65534;BME280;53640;55.838;37.184;2023-03-31T16:05:56;97866.88;;;3.37;49.47
65534;BME280;53640;55.838;37.184;2023-03-31T16:08:27;97908.22;;;3.61;49.51
65534;BME280;53640;55.838;37.184;2023-03-31T16:11:09;97802.38;;;2.87;49.91
65534;BME280;53640;55.838;37.184;2023-03-31T16:13:41;97815.69;;;3.00;50.06
65534;BME280;53640;55.838;37.184;2023-03-31T16:16:14;97864.00;;;3.25;50.37
65534;BME280;53640;55.838;37.184;2023-03-31T16:18:49;97786.72;;;2.70;50.10
65534;BME280;53640;55.838;37.184;2023-03-31T16:21:24;97823.53;;;2.88;50.86
65534;BME280;53640;55.838;37.184;2023-03-31T16:23:56;97857.66;;;3.06;50.84
65534;BME280;53640;55.838;37.184;2023-03-31T16:26:24;97834.84;;;2.84;51.04
65534;BME280;53640;55.838;37.184;2023-03-31T16:28:54;97827.44;;;2.79;51.41
65534;BME280;53640;55.838;37.184;2023-03-31T16:31:49;97859.91;;;2.89;51.57
65534;BME280;53640;55.838;37.184;2023-03-31T16:34:34;97847.56;;;2.82;51.76
65534;BME280;53640;55.838;37.184;2023-03-31T16:37:00;97865.25;;;2.96;52.24
65534;BME280;53640;55.838;37.184;2023-03-31T16:39:34;97847.59;;;2.75;51.97
65534;BME280;53640;55.838;37.184;2023-03-31T16:42:03;97861.75;;;2.89;52.38
65534;BME280;53640;55.838;37.184;2023-03-31T16:57:45;97907.16;;;2.62;55.43
65534;BME280;53640;55.838;37.184;2023-03-31T17:00:46;97917.22;;;2.67;55.89
65534;BME280;53640;55.838;37.184;2023-03-31T17:03:20;97803.84;;;1.81;55.74
65534;BME280;53640;55.838;37.184;2023-03-31T17:06:09;97772.19;;;1.65;56.92
65534;BME280;53640;55.838;37.184;2023-03-31T17:08:41;97863.25;;;2.10;56.51
65534;BME280;53640;55.838;37.184;2023-03-31T17:11:11;97916.97;;;2.42;57.23
65534;BME280;53640;55.838;37.184;2023-03-31T17:13:40;97864.84;;;1.98;57.71
65534;BME280;53640;55.838;37.184;2023-03-31T17:16:10;97788.91;;;1.46;58.09
65534;BME280;53640;55.838;37.184;2023-03-31T17:18:40;97799.63;;;1.52;58.47
65534;BME280;53640;55.838;37.184;2023-03-31T17:21:13;97729.28;;;1.12;58.60